Date,TemperatureHighF,TemperatureAvgF,TemperatureLowF,DewpointHighF,DewpointAvgF,DewpointLowF,HumidityHigh,HumidityAvg,HumidityLow,PressureMaxIn,PressureMinIn,WindSpeedMaxMPH,WindSpeedAvgMPH,GustSpeedMaxMPH,PrecipitationSumIn
2013-1-1,74.3,60.5,48.6,58.7,55.1,48.6,100,85,56,30.13,29.92,5,1,17,0.00
2013-1-2,74.7,63.0,54.2,67.8,60.6,54.2,100,93,73,29.99,29.87,4,1,16,0.04
2013-1-3,61.2,56.8,49.1,61.2,56.2,49.1,100,98,88,30.15,29.96,2,0,11,0.50
2013-1-4,57.3,51.6,47.3,53.2,49.7,46.5,100,93,84,30.24,30.13,2,0,10,0.00
2013-1-5,62.0,53.7,41.9,53.6,48.7,40.3,96,84,72,30.25,30.16,2,0,11,0.00
2013-1-6,63.3,56.6,50.2,57.4,54.9,50.2,100,94,78,30.16,30.02,2,0,9,0.56
2013-1-7,62.8,54.9,47.3,55.5,50.8,43.3,100,86,73,30.19,30.09,3,1,18,0.00
2013-1-8,69.0,61.3,58.4,64.8,59.5,55.6,100,94,86,30.19,30.10,1,0,11,0.03
2013-1-9,71.8,64.3,60.1,69.6,63.8,60.1,100,98,89,30.25,30.14,1,0,6,0.00
2013-1-10,76.3,67.9,61.4,70.0,66.1,61.4,100,95,74,30.27,30.19,3,0,9,0.05
2013-1-11,80.7,69.2,61.0,68.5,64.6,59.8,100,87,51,30.19,30.08,3,1,13,0.01
2013-1-12,78.1,68.1,59.6,68.6,64.2,59.6,100,89,56,30.12,30.02,2,0,9,0.00
2013-1-13,77.8,67.3,59.2,66.9,63.2,59.2,100,88,57,30.09,29.99,2,0,9,0.01
2013-1-14,77.9,69.4,59.3,67.2,63.4,59.3,100,83,62,30.11,30.02,3,1,11,0.00
2013-1-15,78.0,70.4,61.3,67.8,64.7,61.3,100,83,63,30.08,29.98,3,1,11,0.00
2013-2-8,69.7,62.1,55.0,65.6,55.8,52.6,95,81,60,30.00,29.73,5,2,17,0.00
2013-2-9,63.7,56.1,48.3,52.7,49.0,43.9,98,79,51,30.18,29.99,4,1,14,0.00
2013-2-10,70.4,63.8,52.3,60.0,55.6,50.5,97,76,59,30.22,30.08,7,2,18,0.00
2013-2-11,80.0,69.5,63.7,67.5,61.9,58.8,96,78,54,30.10,29.97,4,1,14,0.00
2013-2-12,80.8,69.7,62.3,66.9,64.8,61.6,100,86,57,29.99,29.79,5,1,16,0.00
2013-2-13,75.5,71.1,65.5,71.9,65.0,48.8,100,82,49,29.84,29.71,6,2,17,0.32
2013-2-14,65.2,53.3,49.7,56.1,49.8,46.9,97,88,64,29.99,29.82,2,0,14,0.10
2013-9-25,83.7,78.0,75.1,76.8,75.6,73.9,100,93,77,29.75,29.66,4,1,13,0.00
2013-9-26,78.5,75.3,70.9,76.9,73.7,69.7,100,95,83,29.82,29.65,2,0,12,0.09
2013-9-27,79.7,73.5,68.3,74.3,70.5,68.3,100,91,78,29.92,29.79,3,1,19,0.20
2013-9-28,77.2,74.9,72.6,72.9,70.0,67.8,99,85,76,29.99,29.88,2,1,15,0.02
2013-9-29,80.0,75.1,70.0,73.3,70.3,68.2,100,86,73,29.94,29.88,2,0,18,0.50
2013-9-30,79.9,74.5,69.4,71.7,67.6,64.0,100,80,63,29.96,29.85,2,0,12,0.00
2013-10-1,79.3,73.6,68.7,71.0,66.6,64.6,99,79,63,30.02,29.93,2,0,10,0.02
2013-10-3,83.2,75.7,69.2,75.8,72.7,69.2,100,91,74,30.02,29.94,1,0,11,0.00
2013-10-4,85.8,78.0,71.8,77.7,74.3,71.5,100,89,65,30.02,29.95,2,0,11,0.00
2013-10-5,83.4,77.2,71.5,77.5,74.1,71.5,100,91,75,30.01,29.93,2,0,10,0.00
2013-10-6,84.5,78.6,73.5,77.3,75.4,73.5,100,90,73,29.93,29.79,4,0,13,0.01
2013-10-7,88.1,77.3,73.5,78.8,75.1,71.5,100,94,58,29.81,29.67,3,0,10,0.23
2013-10-8,80.9,74.2,68.0,77.3,73.2,68.0,100,97,84,29.92,29.69,4,1,20,0.14
2013-10-9,68.3,63.9,61.7,68.3,63.7,61.7,100,99,93,30.01,29.91,3,2,14,0.02
2013-10-10,83.0,71.0,63.7,68.5,64.8,60.6,100,83,47,29.99,29.90,2,0,11,0.00
2013-10-11,84.1,72.5,64.2,69.2,64.5,60.7,100,80,46,29.96,29.85,2,0,12,0.00
2013-10-12,85.6,73.2,63.7,68.1,64.5,58.0,100,78,41,29.96,29.88,2,0,11,0.00
2013-10-13,85.5,72.1,64.3,67.4,65.1,61.2,100,82,45,30.01,29.92,2,0,10,0.00
2013-10-14,76.9,71.1,67.3,71.6,68.5,66.7,100,92,78,29.99,29.91,4,1,16,0.03
2013-10-15,73.1,70.9,68.6,72.8,70.2,68.3,100,98,91,29.94,29.86,3,1,19,0.43
2013-10-16,81.1,73.8,67.4,72.4,69.9,67.1,100,88,72,29.90,29.85,1,0,12,0.00
2013-10-17,84.3,74.8,67.4,75.6,70.5,67.4,100,88,60,29.90,29.81,2,0,10,0.00
2013-10-18,88.1,77.4,70.8,75.5,72.1,68.9,100,86,56,29.91,29.82,3,0,12,0.00
2013-10-19,76.3,74.9,72.8,74.9,74.0,72.8,100,97,93,29.87,29.83,0,0,5,0.00
2013-10-20,77.9,72.6,68.1,73.8,67.5,64.0,100,85,68,29.92,29.81,2,0,12,0.00
2013-10-21,80.3,74.7,70.2,75.4,72.8,68.1,100,94,83,29.95,29.87,1,0,11,0.00
2013-10-22,78.8,75.2,72.2,76.9,74.5,72.2,100,98,88,29.89,29.73,0,0,10,0.61
2013-10-23,73.4,67.4,63.9,72.1,65.5,56.2,100,94,55,29.83,29.73,4,1,17,0.04
2013-10-24,70.9,60.9,53.1,57.2,50.3,44.3,98,69,47,30.09,29.93,2,0,11,0.00
2013-10-25,74.0,62.4,53.8,57.0,53.4,46.9,100,76,47,30.18,30.07,3,0,12,0.00
2013-10-26,71.2,61.1,52.6,58.5,54.2,48.7,98,79,60,30.18,30.05,2,0,13,0.00
2013-10-27,71.9,60.6,50.8,57.1,51.4,41.3,100,76,35,30.07,30.01,2,0,9,0.00
2013-10-28,75.9,64.3,54.6,64.2,59.0,54.4,100,85,60,30.14,30.02,1,0,10,0.00
2013-10-29,76.4,65.4,60.0,68.7,62.8,59.9,100,92,70,30.20,30.11,2,0,13,0.00
2013-10-30,78.2,69.7,62.0,70.1,65.2,62.0,100,87,71,30.19,30.09,2,0,12,0.00
2013-10-31,81.0,73.6,66.3,72.2,68.5,64.9,100,85,64,30.09,29.90,5,1,16,0.00
2013-11-1,82.4,75.9,69.6,72.5,70.4,68.4,99,84,64,29.92,29.73,4,1,18,0.00
2013-11-2,76.6,68.3,59.7,74.1,65.8,57.6,100,92,63,29.88,29.69,3,0,12,6.23
2013-11-3,70.3,62.2,54.0,59.6,52.1,46.0,100,72,43,30.08,29.87,3,1,17,0.04
2013-11-10,74.7,66.5,60.1,67.9,63.0,59.7,100,90,65,30.13,30.05,3,0,13,0.00
2013-11-11,74.7,65.6,57.4,66.4,61.6,57.4,100,89,61,30.11,30.04,1,0,9,0.00
2013-11-12,75.6,68.2,63.6,66.6,61.2,51.3,99,80,46,30.05,29.95,4,0,13,0.00
2013-11-13,63.5,52.9,49.5,50.4,44.0,40.0,83,72,62,30.33,30.05,5,2,24,0.00
2013-11-14,66.7,57.3,45.3,61.4,53.0,43.1,98,86,71,30.31,30.15,3,1,17,0.00
2013-11-15,67.8,63.0,56.7,67.4,62.5,56.7,100,98,89,30.15,29.99,2,0,9,0.04
2013-11-16,73.9,66.0,61.7,68.8,65.0,61.7,100,97,79,30.09,30.01,2,0,10,0.01
2013-11-30,59.4,56.8,54.1,58.2,55.6,51.8,99,96,89,30.29,30.14,3,2,17,0.00
2013-12-1,68.8,59.1,54.8,62.4,56.8,53.4,100,92,77,30.14,29.90,2,0,12,0.00
2013-12-2,67.0,57.6,52.4,57.7,55.0,52.4,100,92,69,29.90,29.73,1,0,12,0.00
2013-12-3,73.1,60.5,49.7,61.9,56.6,49.7,100,88,63,29.88,29.79,2,0,10,0.00
2013-12-4,79.2,66.8,58.7,68.4,63.7,58.7,100,91,62,30.01,29.86,2,0,7,0.00
2013-12-5,82.4,69.4,58.6,68.6,64.3,58.6,100,85,55,30.08,29.99,3,0,11,0.00
2013-12-6,82.4,74.5,63.2,71.0,67.0,63.2,100,79,59,30.07,30.01,3,1,16,0.00
2013-12-7,83.4,72.5,66.3,71.0,68.4,66.3,100,88,60,30.14,30.06,2,0,10,0.00
2013-12-8,68.1,64.8,63.2,67.3,64.6,63.2,100,99,91,30.18,30.07,1,0,7,0.00
2013-12-9,82.1,70.4,61.5,72.0,67.0,61.5,100,90,63,30.10,29.99,3,0,16,0.00
2013-12-10,78.9,68.3,54.0,72.3,65.0,45.9,100,90,69,30.17,29.95,5,1,19,0.17
2013-12-11,65.5,58.5,49.8,60.3,54.0,44.9,92,85,74,30.21,30.14,3,1,18,0.01
2013-12-12,65.1,55.4,46.1,51.1,41.7,28.1,89,63,27,30.28,30.15,3,1,12,0.00
2013-12-13,65.7,54.9,45.3,57.8,51.4,43.4,100,89,72,30.24,30.05,2,0,12,0.00
2013-12-14,76.6,66.6,54.8,70.9,64.6,54.8,100,94,76,30.04,29.78,4,1,14,0.39
2013-12-15,67.3,60.2,48.7,67.3,57.6,43.6,100,91,73,30.07,29.76,4,1,17,0.36
2013-12-16,59.5,47.5,38.9,48.0,42.1,36.1,100,83,55,30.16,30.06,2,0,11,0.00
2013-12-17,60.4,46.6,41.2,45.5,42.2,38.9,100,88,45,30.18,30.13,1,0,9,0.00
2013-12-20,72.3,60.6,49.2,63.0,57.1,49.2,100,89,67,30.13,30.05,2,0,10,0.00
2013-12-21,79.7,70.0,58.5,71.4,66.1,58.5,100,89,64,30.05,29.95,7,2,16,0.00
2013-12-22,82.0,74.4,69.8,72.2,70.4,69.3,100,88,68,30.05,29.98,4,1,18,0.00
2013-12-23,82.3,74.4,65.9,71.7,69.9,64.7,100,87,66,30.07,29.97,4,1,16,0.02
2013-12-24,63.0,54.9,46.5,62.1,44.4,33.8,97,70,40,30.22,30.04,5,2,18,0.01
2013-12-25,62.8,51.7,41.3,55.8,48.0,36.1,96,87,68,30.21,30.15,4,1,19,0.00
2013-12-26,56.5,54.0,50.8,56.1,51.1,47.6,99,90,80,30.19,30.08,2,0,11,0.00
2013-12-27,60.1,56.5,51.7,56.3,54.1,50.0,97,92,86,30.23,30.13,3,1,14,0.00
2013-12-28,70.3,64.6,58.9,67.9,62.2,53.4,100,92,82,30.19,29.90,5,1,16,0.10
2013-12-29,72.2,71.1,68.2,70.7,69.1,67.2,100,94,87,29.90,29.81,5,2,16,0.62
2013-12-30,62.8,55.0,49.1,57.3,49.8,46.8,97,84,59,30.08,29.91,3,1,12,0.00
2013-12-31,61.9,56.2,54.5,54.2,51.3,49.2,98,84,63,30.24,30.10,2,0,11,0.00
2014-1-1,60.4,57.0,53.2,60.4,56.3,50.4,100,98,90,30.22,29.99,0,0,6,1.45
2014-1-2,65.2,60.3,55.0,65.2,59.9,49.7,100,99,80,29.98,29.66,6,1,26,3.60